Inks Lake Village, Texas
Current Conditions -  °F | °C
As of 12:53 AM on Saturday 25 Oct 2014 (Local Time) from KBMQ Reporting Station
Clear Clear  
Wind Chill: 65°   Ceiling: Unl
Heat Index: 65°   Visibility: 10mi
Dew Point: 58°   Wind: 0mph
Humidity: 78%   Direction: NA
Pressure: 30.18"   Gusts: NA
Location:  30.7573°N, 98.4911°W
Report Text: KBMQ 250553Z AUTO 00000KT 10SM CLR 18/14 A3018 RMK AO2 SLP204 T01830144 10261 20183 402890150 51005
Loading
Personal Weather Stations






























Interactive Weather Map
Tropical Storm Tracking
New forecast layout! Learn more

10-Day Weather Forecast

Advertisements
Track Severe Weather on mobile